Home > Products > Valid Products > MTR

000
SAUS41 KBOX 211355
MTRMQE
METAR KMQE 211354Z AUTO 21007KT 10/M03 A3015 RMK AO1 SLP224
T01001028





000
SAUS41 KBOX 211255
MTRMQE
METAR KMQE 211254Z AUTO 21008KT 07/M01 A3017 RMK AO1 SLP232
T00671011





000
SAUS41 KBOX 211155
MTRMQE
METAR KMQE 211154Z AUTO 18008KT 04/02 A3019 RMK AO1 SLP237 T00440017
10044 20022 58005





000
SAUS41 KBOX 211055
MTRMQE
METAR KMQE 211054Z AUTO 20009KT 03/01 A3020 RMK AO1 SLP240 T00280011





000
SAUS41 KBOX 210955
MTRMQE
METAR KMQE 210954Z AUTO 20009KT 02/01 A3020 RMK AO1 SLP239 T00220006





000
SAUS41 KBOX 210855
MTRMQE
METAR KMQE 210854Z AUTO 22010KT 02/M01 A3020 RMK AO1 SLP242
T00221006 56020





000
SAUS41 KBOX 210755
MTRMQE
METAR KMQE 210754Z AUTO 22010KT 03/M01 A3023 RMK AO1 SLP249
T00281006





000
SAUS41 KBOX 210655
MTRMQE
METAR KMQE 210654Z AUTO 21010KT 03/00 A3024 RMK AO1 SLP254 T00280000





000
SAUS41 KBOX 210555
MTRMQE
METAR KMQE 210554Z AUTO 22009KT 03/00 A3026 RMK AO1 SLP262 T00330000
10061 20033 58026





000
SAUS41 KBOX 210455
MTRMQE
METAR KMQE 210454Z AUTO 21010KT 03/01 A3029 RMK AO1 SLP273 T00330006
401110022





000
SAUS41 KBOX 210355
MTRMQE
METAR KMQE 210354Z AUTO 19010KT 03/01 A3032 RMK AO1 SLP280 T00330006





000
SAUS41 KBOX 210255
MTRMQE
METAR KMQE 210254Z AUTO 19010KT 04/00 A3034 RMK AO1 SLP288 T00390000
58010





000
SAUS41 KBOX 210155
MTRMQE
METAR KMQE 210154Z AUTO 17010KT 04/M01 A3036 RMK AO1 SLP295
T00441006





000
SAUS41 KBOX 210055
MTRMQE
METAR KMQE 210054Z AUTO 15011KT 05/M01 A3037 RMK AO1 SLP300
T00501011





000
SAUS41 KBOX 202355
MTRMQE
METAR KMQE 202354Z AUTO 13009KT 07/M04 A3037 RMK AO1 SLP299
T00671039 10111 20067 56011





000
SAUS41 KBOX 202255
MTRMQE
METAR KMQE 202254Z AUTO 10009KT 08/M03 A3038 RMK AO1 SLP304
T00781033





000
SAUS41 KBOX 202155
MTRMQE
METAR KMQE 202154Z AUTO 06006KT 09/M05 A3039 RMK AO1 SLP307
T00941050





000
SAUS41 KBOX 202055
MTRMQE
METAR KMQE 202054Z AUTO 06006KT 10/M05 A3041 RMK AO1 SLP311
T01001050 58017





000
SAUS41 KBOX 201955
MTRMQE
METAR KMQE 201954Z AUTO 07011KT 10/M06 A3042 RMK AO1 SLP317
T01001056





000
SAUS41 KBOX 201855
MTRMQE
METAR KMQE 201854Z AUTO 07007KT 11/M09 A3044 RMK AO1 SLP323
T01061089





000
SAUS41 KBOX 201756
MTRMQE
METAR KMQE 201754Z AUTO 06007KT 030V100 10/M11 A3046 RMK AO1 SLP328
T01001111 10106 20050 58013





000
SAUS41 KBOX 201655
MTRMQE
METAR KMQE 201654Z AUTO 08011G17KT 10/M12 A3047 RMK AO1 SLP332
T01001117





000
SAUS41 KBOX 201555
MTRMQE
METAR KMQE 201554Z AUTO VRB06G17KT 09/M07 A3049 RMK AO1 SLP338
T00941072





000
SAUS41 KBOX 201455
MTRMQE
METAR KMQE 201454Z AUTO 06008G14KT 010V090 09/M06 A3050 RMK AO1
SLP341 T00891061 53006





000
SAUS41 KBOX 201355
MTRMQE
METAR KMQE 201354Z AUTO 08013G19KT 08/M07 A3049 RMK AO1 SLP338
T00781067





000
SAUS41 KBOX 201255
MTRMQE
METAR KMQE 201254Z AUTO 07012G18KT 07/M05 A3048 RMK AO1 SLP336
T00671050





000
SAUS41 KBOX 201155
MTRMQE
METAR KMQE 201154Z AUTO 05007KT 010V080 05/M06 A3048 RMK AO1 SLP336
T00501056 10050 20022 51022





000
SAUS41 KBOX 201055
MTRMQE
METAR KMQE 201054Z AUTO 36008KT 03/M04 A3046 RMK AO1 SLP329
T00281044





000
SAUS41 KBOX 200955
MTRMQE
METAR KMQE 200954Z AUTO 36008KT 02/M04 A3045 RMK AO1 SLP323
T00221044





000
SAUS41 KBOX 200855
MTRMQE
METAR KMQE 200854Z AUTO 36008KT 03/M05 A3041 RMK AO1 SLP312
T00281050 53007





000
SAUS41 KBOX 200755
MTRMQE
METAR KMQE 200754Z AUTO 01007KT 03/M05 A3040 RMK AO1 SLP308
T00331050





000
SAUS41 KBOX 200655
MTRMQE
METAR KMQE 200654Z AUTO 36007KT 04/M05 A3040 RMK AO1 SLP305
T00391050





000
SAUS41 KBOX 200555
MTRMQE
METAR KMQE 200554Z AUTO 36008KT 04/M05 A3039 RMK AO1 SLP304
T00441050 10106 20044 51011





000
SAUS41 KBOX 200455
MTRMQE
METAR KMQE 200454Z AUTO 34009KT 06/M05 A3039 RMK AO1 SLP304
T00561050 401670017





000
SAUS41 KBOX 200355
MTRMQE
METAR KMQE 200354Z AUTO 35009KT 06/M05 A3039 RMK AO1 SLP303
T00611050





000
SAUS41 KBOX 200255
MTRMQE
METAR KMQE 200254Z AUTO 36011KT 07/M05 A3036 RMK AO1 SLP294
T00671050 51028





000
SAUS41 KBOX 200155
MTRMQE
METAR KMQE 200154Z AUTO 01008G19KT 07/M04 A3034 RMK AO1 SLP288
T00721044





000
SAUS41 KBOX 200056
MTRMQE
METAR KMQE 200054Z AUTO 35011G21KT 09/M04 A3031 RMK AO1 SLP278
T00891039





000
SAUS41 KBOX 192355
MTRMQE
METAR KMQE 192354Z AUTO 35010G17KT 11/M03 A3027 RMK AO1 SLP266
T01061028 10167 20106 53025





000
SAUS41 KBOX 192255
MTRMQE
METAR KMQE 192254Z AUTO 34014G20KT 13/M04 A3023 RMK AO1 SLP252
T01281039





000
SAUS41 KBOX 192155
MTRMQE
METAR KMQE 192154Z AUTO 31016G25KT 14/M04 A3021 RMK AO1 PK WND
31028/2142 SLP245 T01441039





000
SAUS41 KBOX 192056
MTRMQE
METAR KMQE 192054Z AUTO 31011G24KT 16/M02 A3020 RMK AO1 SLP239
T01561022 53008





000
SAUS41 KBOX 191955
MTRMQE
METAR KMQE 191954Z AUTO 33007G19KT 290V350 16/M01 A3018 RMK AO1
SLP233 T01611011





000
SAUS41 KBOX 191855
MTRMQE
METAR KMQE 191854Z AUTO 33014G21KT 16/M02 A3016 RMK AO1 SLP228
T01611017





000
SAUS41 KBOX 191755
MTRMQE
METAR KMQE 191754Z AUTO 33009G23KT 16/M02 A3017 RMK AO1 PK WND
31026/1701 SLP231 T01561017 10161 20050 52000





000
SAUS41 KBOX 191655
MTRMQE
METAR KMQE 191654Z AUTO 34009G25KT 15/M02 A3018 RMK AO1 PK WND
32027/1631 SLP232 T01501017





000
SAUS41 KBOX 191555
MTRMQE
METAR KMQE 191554Z AUTO 34011G20KT 14/00 A3017 RMK AO1 SLP230
T01390000





000
SAUS41 KBOX 191455
MTRMQE
METAR KMQE 191454Z AUTO 34011G21KT 12/01 A3017 RMK AO1 SLP232
T01220011 53005





000
SAUS41 KBOX 191355
MTRMQE
METAR KMQE 191354Z AUTO 33015G20KT 11/01 A3017 RMK AO1 SLP230
T01110011





000
SAUS41 KBOX 191255
MTRMQE
METAR KMQE 191254Z AUTO 28012G17KT 08/01 A3016 RMK AO1 SLP227
T00830006





000
SAUS41 KBOX 191155
MTRMQE
METAR KMQE 191154Z AUTO 28010KT 05/00 A3016 RMK AO1 SLP228 T00500000
10050 20022 53002





000
SAUS41 KBOX 191055
MTRMQE
METAR KMQE 191054Z AUTO 26011KT 03/M01 A3015 RMK AO1 SLP225
T00281006





000
SAUS41 KBOX 190955
MTRMQE
METAR KMQE 190954Z AUTO 24010KT 02/M01 A3015 RMK AO1 SLP225
T00221006





000
SAUS41 KBOX 190855
MTRMQE
METAR KMQE 190854Z AUTO 24011KT 02/00 A3015 RMK AO1 SLP226 T00220000
56009





000
SAUS41 KBOX 190755
MTRMQE
METAR KMQE 190754Z AUTO 22010KT 02/01 A3016 RMK AO1 SLP229 T00220006





000
SAUS41 KBOX 190655
MTRMQE
METAR KMQE 190654Z AUTO 20010KT 02/01 A3017 RMK AO1 SLP232 T00220011





000
SAUS41 KBOX 190555
MTRMQE
METAR KMQE 190554Z AUTO 19009KT 02/01 A3018 RMK AO1 SLP236 T00220011
10022 20017 56023





000
SAUS41 KBOX 190455
MTRMQE
METAR KMQE 190454Z AUTO 17007KT 02/01 A3020 RMK AO1 SLP242 T00170006
400561022





000
SAUS41 KBOX 190355
MTRMQE
METAR KMQE 190354Z AUTO 16009KT 02/01 A3022 RMK AO1 SLP249 T00170006





000
SAUS41 KBOX 190255
MTRMQE
METAR KMQE 190254Z AUTO 14008KT 02/01 A3025 RMK AO1 SLP259 T00170006
58010





000
SAUS41 KBOX 190155
MTRMQE
METAR KMQE 190154Z AUTO 13006KT 02/M01 A3026 RMK AO1 SLP263
T00171006





000
SAUS41 KBOX 190055
MTRMQE
METAR KMQE 190054Z AUTO 13006KT 02/M01 A3027 RMK AO1 SLP267
T00171006





000
SAUS41 KBOX 182355
MTRMQE
METAR KMQE 182354Z AUTO 08004KT 02/M01 A3028 RMK AO1 SLP269
T00221006 10056 20022 56021





000
SAUS41 KBOX 182255
MTRMQE
METAR KMQE 182254Z AUTO 09006KT 03/M01 A3028 RMK AO1 SLP271
T00281006





000
SAUS41 KBOX 182156
MTRMQE
METAR KMQE 182154Z AUTO VRB04KT 04/M01 A3032 RMK AO1 SLP285
T00391006





000
SAUS41 KBOX 182055
MTRMQE
METAR KMQE 182054Z AUTO 08005KT 04/M01 A3034 RMK AO1 SLP292
T00441006 58028





000
SAUS41 KBOX 181955
MTRMQE
METAR KMQE 181954Z AUTO 08006KT 05/M01 A3038 RMK AO1 SLP303
T00501006





000
SAUS41 KBOX 181855
MTRMQE
METAR KMQE 181854Z AUTO 07007KT 040V110 05/M01 A3040 RMK AO1 SLP312
T00501011





000
SAUS41 KBOX 181755
MTRMQE
METAR KMQE 181754Z AUTO 06008KT 04/M02 A3043 RMK AO1 SLP320
T00441017 10050 20017





000
SAUS41 KBOX 181655
MTRMQE
METAR KMQE 181654Z AUTO 06011G14KT 04/M02 A3043 RMK AO1 SLP320
T00441017





000
SAUS41 KBOX 181555
MTRMQE
METAR KMQE 181554Z AUTO 08009G14KT 04/M02 A3047 RMK AO1 SLP336
T00391022





000
SAUS41 KBOX 181456
MTRMQE
METAR KMQE 181454Z AUTO 06007KT 04/M02 A3051 RMK AO1 SLP349
T00391017 50003





    US Dept of Commerce
    National Oceanic and Atmospheric Administration
    National Weather Service
    1325 East West Highway
    Silver Spring, MD 20910
    Page Author: NWS Internet Services Team
Disclaimer
Information Quality
Credits
Glossary
Privacy Policy
Freedom of Information Act (FOIA)
About Us
Career Opportunities